Time;durP1;ratioP1;P1;durP2;ratioP2;P2;SDS_P1;SDS_P2;PMS_P1;PMS_P2;Temp;Humidity;BMP_temperature;BMP_pressure;BME280_temperature;BME280_humidity;BME280_pressure;Samples;Min_cycle;Max_cycle;Signal;HPM_P1;HPM_P2
2023/05/22 00:01:07;;;;;;;1.20;0.88;;;18.30;99.90;;;;;;7406988;19;19929;-82
2023/05/22 00:03:37;;;;;;;0.63;0.35;;;18.10;99.90;;;;;;7406951;19;19926;-81
2023/05/22 00:06:09;;;;;;;0.40;0.35;;;17.90;99.90;;;;;;7407904;19;19923;-81
2023/05/22 00:08:38;;;;;;;0.47;0.40;;;18.10;99.90;;;;;;7407658;19;19922;-80
2023/05/22 00:11:10;;;;;;;0.20;0.20;;;18.10;99.90;;;;;;7407995;19;19911;-81
2023/05/22 00:13:39;;;;;;;;;;;18.00;99.90;;;;;;7410204;19;19944;-81
2023/05/22 00:16:09;;;;;;;0.40;0.30;;;18.20;99.90;;;;;;7407067;19;19919;-81
2023/05/22 00:18:41;;;;;;;0.90;0.63;;;18.10;99.90;;;;;;7405278;19;19918;-81
2023/05/22 00:21:12;;;;;;;0.10;0.10;;;18.10;99.90;;;;;;7405655;19;19927;-81
2023/05/22 00:23:41;;;;;;;0.63;0.63;;;18.40;99.90;;;;;;7404355;19;19933;-81
2023/05/22 00:26:20;;;;;;;0.52;0.52;;;18.00;99.90;;;;;;7406522;19;19943;-81
2023/05/22 00:28:49;;;;;;;1.85;0.75;;;18.10;99.90;;;;;;7406774;19;19921;-80
2023/05/22 00:31:18;;;;;;;0.45;0.28;;;18.00;99.90;;;;;;7411829;19;20352;-82
2023/05/22 00:33:47;;;;;;;0.40;0.40;;;17.90;99.90;;;;;;7408125;19;19922;-81
2023/05/22 00:36:17;;;;;;;0.10;0.10;;;18.00;99.90;;;;;;7407105;19;20423;-81
2023/05/22 00:38:47;;;;;;;0.28;0.28;;;17.90;99.90;;;;;;7405755;19;19929;-81
2023/05/22 00:41:18;;;;;;;0.40;0.40;;;17.80;99.90;;;;;;7407040;19;19915;-81
2023/05/22 00:43:49;;;;;;;0.30;0.15;;;17.80;99.90;;;;;;7406983;19;19939;-81
2023/05/22 00:46:20;;;;;;;0.20;0.20;;;17.90;99.90;;;;;;7404173;19;19915;-80
2023/05/22 00:48:51;;;;;;;0.25;0.25;;;17.90;99.90;;;;;;7405521;19;20053;-81
2023/05/22 00:51:22;;;;;;;0.60;0.60;;;17.80;99.90;;;;;;7405929;19;19933;-81
2023/05/22 00:53:52;;;;;;;;;;;17.90;99.90;;;;;;7407505;19;19915;-80
2023/05/22 00:56:24;;;;;;;0.52;0.52;;;17.90;99.90;;;;;;7406053;19;19926;-81
2023/05/22 00:58:53;;;;;;;0.10;0.10;;;17.90;99.90;;;;;;7404320;19;19929;-81
2023/05/22 01:01:22;;;;;;;3.20;0.55;;;17.90;99.90;;;;;;7405507;19;20466;-81
2023/05/22 01:03:54;;;;;;;0.20;0.20;;;17.80;99.90;;;;;;7405849;19;19953;-81
2023/05/22 01:06:23;;;;;;;0.70;0.32;;;17.90;99.90;;;;;;7402433;19;19942;-81
2023/05/22 01:08:52;;;;;;;2.50;0.43;;;17.90;99.90;;;;;;7405863;19;19922;-81
2023/05/22 01:11:28;;;;;;;0.10;0.10;;;17.90;99.90;;;;;;7407441;19;19929;-81
2023/05/22 01:14:07;;;;;;;0.55;0.50;;;17.80;99.90;;;;;;7405763;19;19942;-80
2023/05/22 01:16:45;;;;;;;0.63;0.63;;;17.80;99.90;;;;;;7404937;19;19925;-81
2023/05/22 01:19:31;;;;;;;1.08;0.98;;;17.70;99.90;;;;;;7403123;19;19915;-81
2023/05/22 01:22:15;;;;;;;1.65;0.50;;;17.90;99.90;;;;;;7405137;19;20364;-81
2023/05/22 01:25:02;;;;;;;0.00;0.00;;;17.80;99.90;;;;;;7406168;19;19926;-81
2023/05/22 01:27:51;;;;;;;;;;;17.60;99.90;;;;;;7407604;19;20263;-81
2023/05/22 01:30:44;;;;;;;0.20;0.20;;;17.80;99.90;;;;;;7405073;19;20279;-80
2023/05/22 01:33:16;;;;;;;0.43;0.30;;;17.80;99.90;;;;;;7405851;19;19922;-81
2023/05/22 01:35:50;;;;;;;0.75;0.65;;;17.70;99.90;;;;;;7404006;19;19926;-81
2023/05/22 01:38:19;;;;;;;0.63;0.38;;;17.70;99.90;;;;;;7403865;19;19922;-81
2023/05/22 01:40:49;;;;;;;0.20;0.20;;;17.70;99.90;;;;;;7404844;19;19953;-81
2023/05/22 01:43:19;;;;;;;1.10;0.93;;;17.50;99.90;;;;;;7409815;19;19914;-80
2023/05/22 01:45:51;;;;;;;0.60;0.22;;;17.60;99.90;;;;;;7403256;19;19946;-81
2023/05/22 01:48:20;;;;;;;0.10;0.10;;;17.60;99.90;;;;;;7405680;19;19930;-80
2023/05/22 01:50:53;;;;;;;0.47;0.47;;;17.60;99.90;;;;;;7405762;19;20402;-81
2023/05/22 01:53:33;;;;;;;0.55;0.55;;;17.50;99.90;;;;;;7405757;19;19923;-80
2023/05/22 01:56:08;;;;;;;0.55;0.55;;;17.60;99.90;;;;;;7405178;19;20337;-81
2023/05/22 01:58:47;;;;;;;2.38;0.73;;;17.60;99.90;;;;;;7402682;19;20021;-81
2023/05/22 02:01:20;;;;;;;0.82;0.43;;;17.50;99.90;;;;;;7403807;19;20467;-80
2023/05/22 02:03:55;;;;;;;1.33;0.28;;;17.50;99.90;;;;;;7405325;19;19922;-81
2023/05/22 02:06:27;;;;;;;0.25;0.25;;;17.60;99.90;;;;;;7404053;19;20355;-82
2023/05/22 02:08:57;;;;;;;0.10;0.10;;;17.30;99.90;;;;;;7404845;19;19970;-81
2023/05/22 02:11:27;;;;;;;0.95;0.70;;;17.50;99.90;;;;;;7404086;19;19954;-81
2023/05/22 02:13:58;;;;;;;1.80;0.77;;;17.40;99.90;;;;;;7404848;19;19931;-81
2023/05/22 02:16:30;;;;;;;0.73;0.70;;;17.40;99.90;;;;;;7404148;19;19923;-80
2023/05/22 02:19:04;;;;;;;0.47;0.28;;;17.50;99.90;;;;;;7401886;19;19914;-81
2023/05/22 02:21:35;;;;;;;0.15;0.15;;;17.30;99.90;;;;;;7404624;19;20609;-81
2023/05/22 02:24:05;;;;;;;0.45;0.45;;;17.40;99.90;;;;;;7401910;19;19931;-82
2023/05/22 02:26:34;;;;;;;0.88;0.60;;;17.50;99.90;;;;;;7403833;19;20308;-81
2023/05/22 02:29:03;;;;;;;0.10;0.10;;;17.40;99.90;;;;;;7402432;19;19947;-81
2023/05/22 02:31:42;;;;;;;0.75;0.73;;;17.40;99.90;;;;;;7404136;19;19926;-80
2023/05/22 02:34:21;;;;;;;0.10;0.10;;;17.30;99.90;;;;;;7403236;19;19926;-81
2023/05/22 02:36:50;;;;;;;0.15;0.15;;;17.40;99.90;;;;;;7403627;19;19956;-81
2023/05/22 02:39:19;;;;;;;0.28;0.28;;;15.90;99.90;;;;;;7402786;19;19966;-82
2023/05/22 02:41:48;;;;;;;0.60;0.47;;;17.30;99.90;;;;;;7402677;19;19926;-81
2023/05/22 02:44:17;;;;;;;0.52;0.52;;;17.30;99.90;;;;;;7403959;19;20361;-81
2023/05/22 02:46:50;;;;;;;0.20;0.15;;;17.40;99.90;;;;;;7403429;19;19925;-81
2023/05/22 02:49:19;;;;;;;0.00;0.00;;;17.30;99.90;;;;;;7403389;19;19923;-81
2023/05/22 02:51:48;;;;;;;0.25;0.25;;;17.30;99.90;;;;;;7403302;19;19970;-82
2023/05/22 02:54:17;;;;;;;1.77;0.77;;;17.30;99.90;;;;;;7403498;19;19939;-81
2023/05/22 02:56:47;;;;;;;0.20;0.20;;;16.50;99.90;;;;;;7404794;19;19915;-81
2023/05/22 02:59:16;;;;;;;0.52;0.40;;;17.30;99.90;;;;;;7402032;19;19922;-81
2023/05/22 03:01:47;;;;;;;0.75;0.70;;;17.30;99.90;;;;;;7403631;19;19958;-81
2023/05/22 03:04:19;;;;;;;0.88;0.75;;;17.20;99.90;;;;;;7403076;19;19910;-81
2023/05/22 03:06:48;;;;;;;0.52;0.52;;;17.10;99.90;;;;;;7402400;19;19917;-81
2023/05/22 03:09:19;;;;;;;0.28;0.28;;;17.10;99.90;;;;;;7402189;19;19923;-81
2023/05/22 03:11:48;;;;;;;0.05;0.05;;;17.10;99.90;;;;;;7402391;19;19922;-81
2023/05/22 03:14:17;;;;;;;0.08;0.08;;;17.10;99.90;;;;;;7403447;19;20298;-81
2023/05/22 03:16:47;;;;;;;0.00;0.00;;;17.00;99.90;;;;;;7401452;19;19921;-80
2023/05/22 03:19:19;;;;;;;0.13;0.13;;;17.10;99.90;;;;;;7398660;19;20372;-81
2023/05/22 03:21:48;;;;;;;0.13;0.13;;;17.10;99.90;;;;;;7401893;19;19937;-81
2023/05/22 03:24:18;;;;;;;0.10;0.10;;;17.20;99.90;;;;;;7398756;19;19914;-81
2023/05/22 03:26:47;;;;;;;0.95;0.70;;;17.10;99.90;;;;;;7401314;19;20344;-81
2023/05/22 03:29:16;;;;;;;0.10;0.10;;;19.30;99.90;;;;;;7400265;19;19922;-81
2023/05/22 03:31:45;;;;;;;0.47;0.47;;;17.00;99.90;;;;;;7400990;19;20298;-81
2023/05/22 03:34:15;;;;;;;0.65;0.65;;;17.10;99.90;;;;;;7401022;19;19923;-81
2023/05/22 03:36:47;;;;;;;1.80;1.02;;;17.10;99.90;;;;;;7401892;19;19974;-81
2023/05/22 03:39:16;;;;;;;0.10;0.10;;;17.00;99.90;;;;;;7401124;19;19918;-81
2023/05/22 03:41:46;;;;;;;0.20;0.20;;;17.30;99.90;;;;;;7401309;19;19922;-81
2023/05/22 03:44:15;;;;;;;0.77;0.63;;;17.10;99.90;;;;;;7401624;19;20356;-81
2023/05/22 03:46:45;;;;;;;0.20;0.20;;;17.20;99.90;;;;;;7401205;19;19923;-81
2023/05/22 03:49:15;;;;;;;0.82;0.32;;;17.10;99.90;;;;;;7400828;19;19922;-81
2023/05/22 03:51:46;;;;;;;0.47;0.47;;;17.00;99.90;;;;;;7401849;19;19922;-81
2023/05/22 03:54:16;;;;;;;0.40;0.30;;;17.20;99.90;;;;;;7399734;19;20649;-81
2023/05/22 03:56:45;;;;;;;4.00;1.05;;;17.20;99.90;;;;;;7400860;19;19986;-81
2023/05/22 03:59:15;;;;;;;0.00;0.00;;;17.20;99.90;;;;;;7398280;19;19923;-80
2023/05/22 04:01:45;;;;;;;0.40;0.40;;;17.20;99.90;;;;;;7401169;19;19930;-81
2023/05/22 04:04:15;;;;;;;0.35;0.35;;;17.30;99.90;;;;;;7399383;19;19918;-81
2023/05/22 04:06:48;;;;;;;1.08;1.00;;;17.10;99.90;;;;;;7403341;19;19935;-81
2023/05/22 04:09:17;;;;;;;0.20;0.20;;;17.00;99.90;;;;;;7405709;19;20300;-81
2023/05/22 04:11:47;;;;;;;0.45;0.45;;;17.10;99.90;;;;;;7408534;19;19942;-81
2023/05/22 04:14:21;;;;;;;1.40;0.68;;;17.10;99.90;;;;;;7406496;19;19918;-81
2023/05/22 04:16:50;;;;;;;0.98;0.75;;;16.90;99.90;;;;;;7407269;19;19939;-80
2023/05/22 04:19:19;;;;;;;0.85;0.75;;;17.10;99.90;;;;;;7405222;19;19918;-81
2023/05/22 04:21:51;;;;;;;0.47;0.47;;;17.10;99.90;;;;;;7405411;19;19998;-81
2023/05/22 04:24:21;;;;;;;;;;;17.00;99.90;;;;;;7405701;19;20534;-81
2023/05/22 04:26:52;;;;;;;0.20;0.20;;;17.20;99.90;;;;;;7406101;19;20277;-80
2023/05/22 04:29:21;;;;;;;1.55;1.13;;;17.10;99.90;;;;;;7405732;19;19934;-81
2023/05/22 04:31:53;;;;;;;0.13;0.13;;;17.10;99.90;;;;;;7405930;19;19940;-81
2023/05/22 04:34:22;;;;;;;0.52;0.52;;;17.10;99.90;;;;;;7406948;19;20304;-80
2023/05/22 04:36:54;;;;;;;1.55;1.08;;;17.10;99.90;;;;;;7406116;19;19996;-81
2023/05/22 04:39:24;;;;;;;0.65;0.60;;;17.10;99.90;;;;;;7405720;19;20370;-81
2023/05/22 04:41:54;;;;;;;0.32;0.32;;;17.20;99.90;;;;;;7406084;19;19911;-80
2023/05/22 04:44:23;;;;;;;0.70;0.52;;;17.10;99.90;;;;;;7406712;19;19918;-80
2023/05/22 04:46:52;;;;;;;2.45;0.40;;;17.00;99.90;;;;;;7405619;19;19915;-80
2023/05/22 04:49:23;;;;;;;0.40;0.40;;;16.80;99.90;;;;;;7404837;19;19914;-81
2023/05/22 04:51:56;;;;;;;0.77;0.43;;;16.90;99.90;;;;;;7405454;19;19922;-80
2023/05/22 04:54:25;;;;;;;0.00;0.00;;;16.90;99.90;;;;;;7406871;19;19923;-80
2023/05/22 04:56:54;;;;;;;0.50;0.50;;;17.10;99.90;;;;;;7404880;19;20362;-80
2023/05/22 04:59:25;;;;;;;0.20;0.20;;;17.00;99.90;;;;;;7405796;19;19982;-80
2023/05/22 05:02:02;;;;;;;0.00;0.00;;;17.00;99.90;;;;;;7404782;19;19947;-80
2023/05/22 05:04:31;;;;;;;1.05;1.05;;;17.00;99.90;;;;;;7405800;19;19966;-80
2023/05/22 05:07:04;;;;;;;0.00;0.00;;;15.60;99.90;;;;;;7404336;19;19994;-80
2023/05/22 05:09:33;;;;;;;0.40;0.40;;;17.00;99.90;;;;;;7404902;19;19915;-80
2023/05/22 05:12:03;;;;;;;3.25;1.05;;;17.10;99.90;;;;;;7406068;19;19914;-80
2023/05/22 05:14:32;;;;;;;0.47;0.47;;;17.00;99.90;;;;;;7405151;19;20256;-80
2023/05/22 05:17:01;;;;;;;0.45;0.45;;;16.90;99.90;;;;;;7407120;19;19923;-80
2023/05/22 05:19:30;;;;;;;2.63;1.08;;;16.80;99.90;;;;;;7411633;19;19930;-80
2023/05/22 05:21:59;;;;;;;0.95;0.32;;;17.10;99.90;;;;;;7409886;19;20002;-80
2023/05/22 05:24:30;;;;;;;1.35;0.52;;;16.90;99.90;;;;;;7400636;19;19939;-82
2023/05/22 05:26:59;;;;;;;;;;;16.80;99.90;;;;;;7408443;19;20007;-80
2023/05/22 05:29:28;;;;;;;0.00;0.00;;;16.90;99.90;;;;;;7404461;19;19923;-80
2023/05/22 05:31:57;;;;;;;0.60;0.52;;;16.90;99.90;;;;;;7404640;19;19952;-80
2023/05/22 05:34:26;;;;;;;0.20;0.20;;;16.90;99.90;;;;;;7403847;19;20358;-80
2023/05/22 05:36:56;;;;;;;0.57;0.57;;;16.80;99.90;;;;;;7404121;19;19926;-80
2023/05/22 05:39:25;;;;;;;0.10;0.10;;;16.80;99.90;;;;;;7404249;19;19922;-80
2023/05/22 05:41:56;;;;;;;0.47;0.47;;;16.70;99.90;;;;;;7405188;19;19923;-80
2023/05/22 05:44:26;;;;;;;0.28;0.28;;;16.70;99.90;;;;;;7404017;19;19919;-80
2023/05/22 05:46:55;;;;;;;0.75;0.35;;;16.80;99.90;;;;;;7405787;19;20279;-80
2023/05/22 05:49:25;;;;;;;0.98;0.70;;;16.70;99.90;;;;;;7404190;19;20336;-80
2023/05/22 05:51:55;;;;;;;0.47;0.47;;;16.80;99.90;;;;;;7404237;19;19930;-80
2023/05/22 05:54:25;;;;;;;0.15;0.13;;;16.70;99.90;;;;;;7401539;19;20371;-80
2023/05/22 05:56:56;;;;;;;0.25;0.25;;;16.70;99.90;;;;;;7402814;19;19923;-80
2023/05/22 05:59:25;;;;;;;;;;;16.80;99.90;;;;;;7406199;19;19926;-80
2023/05/22 06:01:54;;;;;;;0.68;0.40;;;16.80;99.90;;;;;;7403150;19;19999;-80
2023/05/22 06:04:23;;;;;;;0.15;0.15;;;16.80;99.90;;;;;;7404417;19;19937;-80
2023/05/22 06:06:52;;;;;;;0.17;0.17;;;16.80;99.90;;;;;;7403325;19;19919;-80
2023/05/22 06:09:21;;;;;;;0.10;0.10;;;16.70;99.90;;;;;;7403712;19;19926;-80
2023/05/22 06:11:50;;;;;;;1.75;0.57;;;17.10;99.90;;;;;;7400023;19;19939;-80
2023/05/22 06:14:22;;;;;;;0.88;0.88;;;16.90;99.90;;;;;;7402805;19;19922;-81
2023/05/22 06:16:50;;;;;;;0.47;0.47;;;16.80;99.90;;;;;;7403236;19;19915;-80
2023/05/22 06:19:20;;;;;;;0.40;0.40;;;16.90;99.90;;;;;;7404194;19;19925;-81
2023/05/22 06:21:49;;;;;;;0.20;0.20;;;16.90;99.90;;;;;;7402943;19;20764;-80
2023/05/22 06:24:18;;;;;;;0.20;0.20;;;16.90;99.90;;;;;;7399284;19;19926;-80
2023/05/22 06:26:47;;;;;;;0.10;0.10;;;16.80;99.90;;;;;;7404229;19;20356;-80
2023/05/22 06:29:16;;;;;;;0.95;0.95;;;17.00;99.90;;;;;;7400451;19;19922;-80
2023/05/22 06:31:47;;;;;;;0.40;0.40;;;16.90;99.90;;;;;;7403096;19;19956;-80
2023/05/22 06:34:16;;;;;;;0.10;0.10;;;16.70;99.90;;;;;;7402508;19;20018;-80
2023/05/22 06:36:45;;;;;;;0.28;0.28;;;16.80;99.90;;;;;;7402458;19;19929;-80
2023/05/22 06:39:15;;;;;;;0.43;0.43;;;16.70;99.90;;;;;;7403397;19;20265;-81
2023/05/22 06:41:44;;;;;;;3.05;1.05;;;16.60;99.90;;;;;;7401035;19;20332;-81
2023/05/22 06:44:13;;;;;;;0.20;0.20;;;16.80;99.90;;;;;;7402188;19;19939;-80
2023/05/22 06:46:42;;;;;;;0.88;0.75;;;16.70;99.90;;;;;;7403770;19;19933;-80
2023/05/22 06:49:14;;;;;;;0.00;0.00;;;16.60;99.90;;;;;;7402621;19;19926;-80
2023/05/22 06:51:44;;;;;;;0.05;0.03;;;16.60;99.90;;;;;;7402997;19;19930;-81
2023/05/22 06:54:14;;;;;;;0.30;0.30;;;16.70;99.90;;;;;;7401839;19;19919;-81
2023/05/22 06:56:42;;;;;;;0.65;0.65;;;16.70;99.90;;;;;;7401722;19;19931;-81
2023/05/22 06:59:12;;;;;;;0.55;0.45;;;16.50;99.90;;;;;;7402511;19;19971;-80
2023/05/22 07:01:41;;;;;;;0.63;0.63;;;16.80;99.90;;;;;;7401012;19;20384;-80
2023/05/22 07:04:12;;;;;;;0.63;0.63;;;16.70;99.90;;;;;;7402884;19;19922;-80
2023/05/22 07:06:45;;;;;;;0.20;0.20;;;16.60;99.90;;;;;;7402054;19;19953;-80
2023/05/22 07:09:14;;;;;;;0.32;0.08;;;16.70;99.90;;;;;;7402656;19;19914;-80
2023/05/22 07:11:44;;;;;;;1.55;0.98;;;16.50;99.90;;;;;;7401953;19;19994;-80
2023/05/22 07:14:13;;;;;;;0.45;0.45;;;16.80;99.90;;;;;;7407052;19;19923;-80
2023/05/22 07:16:42;;;;;;;0.08;0.08;;;16.80;99.90;;;;;;7405852;19;20609;-81
2023/05/22 07:19:11;;;;;;;1.10;0.85;;;16.80;99.90;;;;;;7403274;19;19939;-80
2023/05/22 07:21:40;;;;;;;1.23;0.50;;;16.70;99.90;;;;;;7400943;19;20242;-81
2023/05/22 07:24:12;;;;;;;0.40;0.40;;;16.70;99.90;;;;;;7400798;19;19941;-80
2023/05/22 07:26:45;;;;;;;0.28;0.28;;;17.10;99.90;;;;;;7400023;19;19922;-81
2023/05/22 07:29:14;;;;;;;1.55;0.28;;;16.80;99.90;;;;;;7400472;19;20280;-81
2023/05/22 07:31:43;;;;;;;0.43;0.40;;;16.80;99.90;;;;;;7401748;19;19925;-81
2023/05/22 07:34:12;;;;;;;0.17;0.17;;;16.90;99.90;;;;;;7401013;19;19922;-81
2023/05/22 07:36:41;;;;;;;0.20;0.20;;;16.90;99.90;;;;;;7400883;19;19987;-81
2023/05/22 07:39:13;;;;;;;0.68;0.68;;;16.90;99.90;;;;;;7400797;19;19978;-81
2023/05/22 07:41:42;;;;;;;3.10;1.10;;;16.90;99.90;;;;;;7401649;19;19922;-81
2023/05/22 07:44:11;;;;;;;0.00;0.00;;;16.90;99.90;;;;;;7404530;19;19915;-81
2023/05/22 07:46:40;;;;;;;0.20;0.20;;;16.90;99.90;;;;;;7407831;19;19915;-81
2023/05/22 07:49:09;;;;;;;0.52;0.52;;;16.90;99.90;;;;;;7408319;19;20114;-81
2023/05/22 07:51:39;;;;;;;1.65;0.45;;;17.00;99.90;;;;;;7407623;19;19918;-81
2023/05/22 07:54:12;;;;;;;0.30;0.30;;;17.10;99.90;;;;;;7406841;19;19919;-81
2023/05/22 07:56:42;;;;;;;;;;;17.30;99.90;;;;;;7409667;19;20256;-80
2023/05/22 07:59:12;;;;;;;0.15;0.15;;;17.30;99.90;;;;;;7406583;19;19914;-80
2023/05/22 08:01:41;;;;;;;0.10;0.10;;;17.50;99.90;;;;;;7404243;19;20409;-81
2023/05/22 08:04:10;;;;;;;0.43;0.38;;;15.30;99.90;;;;;;7407919;19;20316;-81
2023/05/22 08:06:40;;;;;;;0.20;0.20;;;17.50;99.90;;;;;;7407023;19;19919;-81
2023/05/22 08:09:11;;;;;;;0.63;0.63;;;17.80;99.90;;;;;;7407605;19;19927;-80
2023/05/22 08:11:41;;;;;;;;;;;17.70;99.90;;;;;;7409851;19;19933;-81
2023/05/22 08:14:10;;;;;;;0.10;0.10;;;17.90;99.90;;;;;;7407161;19;19936;-80
2023/05/22 08:16:39;;;;;;;0.93;0.57;;;17.70;99.90;;;;;;7406557;19;20321;-81
2023/05/22 08:19:08;;;;;;;0.00;0.00;;;17.80;99.90;;;;;;7405951;19;19937;-81
2023/05/22 08:21:38;;;;;;;0.85;0.22;;;17.70;99.90;;;;;;7404805;19;19919;-81
2023/05/22 08:24:08;;;;;;;0.32;0.32;;;17.70;99.90;;;;;;7403736;19;19921;-81
2023/05/22 08:26:40;;;;;;;0.00;0.00;;;17.70;99.90;;;;;;7407470;19;19922;-81
2023/05/22 08:29:09;;;;;;;0.52;0.38;;;17.60;99.90;;;;;;7404174;19;19914;-81
2023/05/22 08:31:37;;;;;;;0.20;0.20;;;17.80;99.90;;;;;;7406748;19;20318;-81
2023/05/22 08:34:09;;;;;;;0.50;0.15;;;17.90;99.90;;;;;;7406766;19;19918;-81
2023/05/22 08:36:38;;;;;;;0.00;0.00;;;18.00;99.90;;;;;;7405027;19;20337;-81
2023/05/22 08:39:07;;;;;;;0.88;0.40;;;17.80;99.90;;;;;;7406386;19;19989;-81
2023/05/22 08:41:39;;;;;;;1.02;0.60;;;17.90;99.90;;;;;;7406119;19;19923;-81
2023/05/22 08:44:09;;;;;;;0.10;0.10;;;17.80;99.90;;;;;;7406785;19;19922;-81
2023/05/22 08:46:40;;;;;;;0.28;0.28;;;18.00;99.90;;;;;;7406307;19;19923;-81
2023/05/22 08:49:10;;;;;;;0.00;0.00;;;17.80;99.90;;;;;;7405382;19;19926;-81
2023/05/22 08:51:41;;;;;;;1.88;0.68;;;16.30;99.90;;;;;;7406425;19;19924;-81
2023/05/22 08:54:11;;;;;;;0.00;0.00;;;17.90;99.90;;;;;;7406504;19;19942;-81
2023/05/22 08:56:43;;;;;;;0.43;0.43;;;18.10;99.90;;;;;;7411983;19;19918;-81
2023/05/22 08:59:12;;;;;;;;;;;17.80;99.90;;;;;;7412895;19;20342;-81
2023/05/22 09:01:40;;;;;;;;;;;18.00;99.90;;;;;;7406155;19;19914;-81
2023/05/22 09:04:09;;;;;;;0.22;0.10;;;17.90;99.90;;;;;;7406319;19;19931;-82
2023/05/22 09:06:38;;;;;;;0.73;0.20;;;17.80;99.90;;;;;;7405869;19;20056;-82
2023/05/22 09:09:09;;;;;;;0.20;0.20;;;17.80;99.90;;;;;;7406679;19;20377;-81
2023/05/22 09:11:38;;;;;;;0.22;0.22;;;17.80;99.90;;;;;;7405555;19;19926;-82
2023/05/22 09:14:14;;;;;;;0.35;0.35;;;17.70;99.90;;;;;;7406503;19;19954;-81
2023/05/22 09:16:47;;;;;;;0.75;0.75;;;17.80;99.90;;;;;;7406458;19;19982;-81
2023/05/22 09:19:17;;;;;;;0.10;0.10;;;17.60;99.90;;;;;;7404596;19;20178;-81
2023/05/22 09:21:46;;;;;;;0.00;0.00;;;17.70;99.90;;;;;;7404271;19;20347;-81
2023/05/22 09:24:15;;;;;;;0.00;0.00;;;17.60;99.90;;;;;;7404102;19;20344;-80
2023/05/22 09:26:45;;;;;;;0.28;0.28;;;17.70;99.90;;;;;;7406388;19;19923;-81
2023/05/22 09:29:16;;;;;;;1.15;0.40;;;17.60;99.90;;;;;;7402634;19;19918;-81
2023/05/22 09:31:45;;;;;;;0.10;0.10;;;17.50;99.90;;;;;;7405701;19;19955;-81
2023/05/22 09:34:16;;;;;;;0.30;0.30;;;17.80;99.90;;;;;;7405098;19;19954;-81
2023/05/22 09:36:45;;;;;;;0.00;0.00;;;17.60;99.90;;;;;;7406161;19;19923;-81
2023/05/22 09:39:14;;;;;;;0.10;0.10;;;17.60;99.90;;;;;;7406221;19;19915;-80
2023/05/22 09:41:45;;;;;;;0.45;0.17;;;17.50;99.90;;;;;;7402002;19;19914;-81
2023/05/22 09:44:18;;;;;;;0.32;0.32;;;17.60;99.90;;;;;;7404838;19;19917;-80
2023/05/22 09:46:48;;;;;;;0.00;0.00;;;17.50;99.90;;;;;;7404251;19;19915;-80
2023/05/22 09:49:17;;;;;;;0.10;0.10;;;17.50;99.90;;;;;;7404925;19;19926;-80
2023/05/22 09:51:48;;;;;;;0.25;0.25;;;17.50;99.90;;;;;;7404683;19;20317;-80
2023/05/22 09:54:18;;;;;;;0.10;0.10;;;17.50;99.90;;;;;;7403553;19;19942;-80
2023/05/22 09:56:50;;;;;;;0.10;0.10;;;17.60;99.90;;;;;;7404704;19;20299;-80
2023/05/22 09:59:25;;;;;;;0.00;0.00;;;17.60;99.90;;;;;;7403147;19;20348;-80
2023/05/22 10:01:55;;;;;;;0.05;0.05;;;17.70;99.90;;;;;;7403443;19;19997;-80
2023/05/22 10:04:25;;;;;;;1.17;1.08;;;17.70;99.90;;;;;;7403454;19;19922;-81
2023/05/22 10:06:55;;;;;;;0.57;0.45;;;17.70;99.90;;;;;;7402631;19;19919;-80
2023/05/22 10:09:29;;;;;;;5.93;1.65;;;17.70;99.90;;;;;;7403596;19;19929;-80
2023/05/22 10:12:03;;;;;;;0.05;0.05;;;17.90;99.90;;;;;;7403356;19;19978;-80
2023/05/22 10:14:37;;;;;;;0.30;0.30;;;18.00;99.90;;;;;;7403991;19;19981;-81
2023/05/22 10:17:07;;;;;;;0.88;0.22;;;18.00;99.90;;;;;;7402344;19;19923;-80
2023/05/22 10:19:37;;;;;;;0.10;0.10;;;18.00;99.90;;;;;;7403368;19;19926;-81
2023/05/22 10:22:07;;;;;;;0.22;0.22;;;18.00;99.90;;;;;;7402214;19;20002;-81
2023/05/22 10:24:38;;;;;;;1.10;0.75;;;18.00;99.90;;;;;;7401105;19;19929;-80
2023/05/22 10:27:08;;;;;;;0.30;0.25;;;18.10;99.90;;;;;;7402814;19;19923;-80
2023/05/22 10:29:46;;;;;;;0.52;0.35;;;18.30;99.90;;;;;;7401954;19;19923;-80
2023/05/22 10:32:22;;;;;;;0.25;0.25;;;18.30;99.90;;;;;;7404462;19;20358;-81
2023/05/22 10:34:55;;;;;;;1.50;0.93;;;18.40;99.90;;;;;;7404811;19;19938;-80
2023/05/22 10:37:47;;;;;;;0.40;0.38;;;18.40;99.90;;;;;;7404003;19;19931;-81
2023/05/22 10:40:21;;;;;;;0.15;0.15;;;18.50;99.90;;;;;;7403554;19;19918;-81
2023/05/22 10:42:50;;;;;;;0.00;0.00;;;18.70;99.90;;;;;;7401960;19;19922;-81
2023/05/22 10:45:22;;;;;;;0.20;0.20;;;18.80;99.90;;;;;;7402752;19;19924;-81
2023/05/22 10:47:51;;;;;;;0.93;0.38;;;18.80;99.90;;;;;;7403337;19;20348;-81
2023/05/22 10:50:20;;;;;;;1.13;0.82;;;18.80;99.90;;;;;;7403239;19;19922;-81
2023/05/22 10:52:49;;;;;;;0.40;0.30;;;19.00;99.90;;;;;;7402629;19;19914;-80
2023/05/22 10:55:24;;;;;;;0.65;0.45;;;19.20;99.90;;;;;;7401944;19;19923;-81
2023/05/22 10:57:57;;;;;;;0.00;0.00;;;19.30;99.90;;;;;;7402954;19;20002;-81
2023/05/22 11:00:32;;;;;;;0.05;0.05;;;19.40;99.90;;;;;;7402002;19;19923;-81
2023/05/22 11:03:07;;;;;;;1.08;0.65;;;19.40;99.90;;;;;;7401051;19;19929;-81
2023/05/22 11:05:37;;;;;;;1.52;0.95;;;19.60;99.90;;;;;;7401939;19;19918;-81
2023/05/22 11:08:36;;;;;;;0.52;0.47;;;19.70;99.90;;;;;;7401465;19;19918;-81
2023/05/22 11:11:14;;;;;;;0.00;0.00;;;19.50;99.90;;;;;;7400565;19;19955;-82
2023/05/22 11:13:43;;;;;;;1.30;1.20;;;19.90;99.90;;;;;;7402459;19;20242;-82
2023/05/22 11:16:18;;;;;;;1.15;1.05;;;19.90;99.90;;;;;;7402279;19;20363;-82
2023/05/22 11:18:47;;;;;;;0.73;0.73;;;19.90;99.90;;;;;;7402586;19;19914;-82
2023/05/22 11:21:16;;;;;;;0.15;0.15;;;19.80;99.90;;;;;;7401077;19;19948;-82
2023/05/22 11:23:45;;;;;;;0.22;0.15;;;19.90;99.90;;;;;;7399189;19;19929;-82
2023/05/22 11:26:23;;;;;;;0.10;0.10;;;20.00;99.90;;;;;;7402274;19;19930;-82
2023/05/22 11:28:53;;;;;;;0.03;0.03;;;19.90;99.90;;;;;;7401912;19;19919;-82
2023/05/22 11:31:25;;;;;;;0.00;0.00;;;20.00;99.90;;;;;;7402333;19;19919;-82
2023/05/22 11:33:55;;;;;;;0.00;0.00;;;20.00;99.90;;;;;;7401731;19;19951;-81
2023/05/22 11:36:25;;;;;;;0.22;0.22;;;20.20;99.90;;;;;;7403117;19;20333;-82
2023/05/22 11:39:00;;;;;;;0.28;0.10;;;20.20;99.90;;;;;;7401845;19;19990;-82
2023/05/22 11:41:33;;;;;;;0.73;0.73;;;20.30;99.90;;;;;;7402214;19;19922;-83
2023/05/22 11:44:03;;;;;;;0.52;0.25;;;20.30;99.90;;;;;;7401473;19;19922;-82
2023/05/22 11:46:35;;;;;;;0.45;0.45;;;20.30;99.90;;;;;;7400182;19;19990;-82
2023/05/22 11:49:05;;;;;;;0.45;0.08;;;20.50;99.90;;;;;;7400580;19;19926;-82
2023/05/22 11:51:34;;;;;;;1.20;0.50;;;20.50;99.90;;;;;;7400588;19;19918;-82
2023/05/22 11:54:03;;;;;;;0.50;0.50;;;20.70;99.90;;;;;;7400946;19;20494;-82
2023/05/22 11:56:33;;;;;;;0.10;0.10;;;20.80;99.90;;;;;;7402038;19;19927;-82
2023/05/22 11:59:03;;;;;;;0.30;0.20;;;20.90;99.90;;;;;;7400338;19;19974;-82
2023/05/22 12:01:35;;;;;;;0.00;0.00;;;20.90;99.90;;;;;;7400291;19;19922;-80
2023/05/22 12:04:04;;;;;;;0.00;0.00;;;21.00;99.90;;;;;;7400347;19;20347;-80
2023/05/22 12:06:33;;;;;;;0.03;0.03;;;21.00;99.90;;;;;;7402158;19;19921;-80
2023/05/22 12:09:02;;;;;;;0.70;0.57;;;21.10;99.90;;;;;;7401903;19;19926;-80
2023/05/22 12:11:36;;;;;;;0.03;0.03;;;21.10;99.90;;;;;;7400532;19;19974;-80
2023/05/22 12:14:06;;;;;;;5.57;1.08;;;21.20;99.90;;;;;;7399954;19;19970;-80
2023/05/22 12:16:38;;;;;;;1.08;0.32;;;21.40;99.90;;;;;;7400687;19;19954;-81
2023/05/22 12:19:08;;;;;;;0.38;0.30;;;21.40;99.90;;;;;;7400373;19;19926;-81
2023/05/22 12:21:40;;;;;;;0.40;0.40;;;21.40;99.90;;;;;;7400998;19;19931;-80
2023/05/22 12:24:10;;;;;;;0.80;0.22;;;21.60;99.90;;;;;;7401544;19;19922;-81
2023/05/22 12:26:39;;;;;;;0.35;0.35;;;21.80;99.90;;;;;;7401899;19;19952;-81
2023/05/22 12:29:08;;;;;;;0.20;0.20;;;22.20;99.90;;;;;;7405314;19;19926;-81
2023/05/22 12:31:40;;;;;;;0.30;0.22;;;22.30;99.90;;;;;;7408941;19;19914;-81
2023/05/22 12:34:09;;;;;;;;;;;22.70;99.90;;;;;;7409645;19;19944;-81
2023/05/22 12:36:41;;;;;;;0.43;0.43;;;22.90;99.90;;;;;;7406237;19;19989;-81
2023/05/22 12:39:11;;;;;;;1.05;0.43;;;23.00;99.90;;;;;;7406756;19;20340;-81
2023/05/22 12:41:40;;;;;;;0.20;0.20;;;23.00;99.90;;;;;;7404335;19;19962;-81
2023/05/22 12:44:09;;;;;;;0.55;0.52;;;23.00;99.90;;;;;;7406737;19;20648;-81
2023/05/22 12:46:42;;;;;;;0.55;0.55;;;22.90;99.90;;;;;;7406118;19;20297;-81
2023/05/22 12:49:11;;;;;;;0.43;0.32;;;22.90;99.90;;;;;;7406310;19;19934;-80
2023/05/22 12:51:41;;;;;;;0.70;0.70;;;22.70;99.90;;;;;;7406226;19;19915;-82
2023/05/22 12:54:10;;;;;;;0.10;0.10;;;22.70;99.90;;;;;;7405750;19;20307;-81
2023/05/22 12:56:39;;;;;;;0.20;0.20;;;23.30;99.90;;;;;;7405510;19;19925;-82
2023/05/22 12:59:08;;;;;;;0.08;0.08;;;23.20;99.90;;;;;;7405480;19;20328;-81
2023/05/22 13:01:40;;;;;;;0.68;0.68;;;23.40;99.90;;;;;;7406721;19;19922;-82
2023/05/22 13:04:09;;;;;;;0.50;0.50;;;23.60;99.90;;;;;;7406023;19;19970;-81
2023/05/22 13:06:38;;;;;;;1.38;1.17;;;23.80;99.90;;;;;;7404025;19;19918;-81
2023/05/22 13:09:07;;;;;;;0.10;0.10;;;24.00;99.90;;;;;;7404702;19;19943;-81